Time;durP1;ratioP1;P1;durP2;ratioP2;P2;SDS_P1;SDS_P2;PMS_P1;PMS_P2;Temp;Humidity;BMP_temperature;BMP_pressure;BME280_temperature;BME280_humidity;BME280_pressure;Samples;Min_cycle;Max_cycle;Signal;HPM_P1;HPM_P2
2023/12/01 00:01:00;;;;;;;26.30;15.25;;;0.70;99.90;;;;;;5113197;27;20033;-80
2023/12/01 00:03:26;;;;;;;24.70;14.88;;;0.60;99.90;;;;;;5113021;27;20023;-81
2023/12/01 00:05:52;;;;;;;22.08;15.18;;;0.60;99.90;;;;;;5131781;27;20020;-80
2023/12/01 00:08:18;;;;;;;24.02;16.23;;;0.50;99.90;;;;;;5132304;27;20038;-80
2023/12/01 00:10:43;;;;;;;25.13;16.02;;;0.40;99.90;;;;;;5131764;27;20030;-81
2023/12/01 00:13:09;;;;;;;22.48;14.85;;;0.50;99.90;;;;;;5131900;27;20026;-79
2023/12/01 00:15:35;;;;;;;25.33;16.08;;;0.40;99.90;;;;;;5131034;27;20164;-80
2023/12/01 00:18:01;;;;;;;23.27;15.13;;;0.30;99.90;;;;;;5131846;27;20028;-80
2023/12/01 00:20:26;;;;;;;25.15;15.98;;;0.20;99.90;;;;;;5113408;27;20136;-80
2023/12/01 00:22:52;;;;;;;26.35;18.33;;;0.20;99.90;;;;;;5131585;27;20031;-79
2023/12/01 00:25:18;;;;;;;24.20;16.75;;;0.10;99.90;;;;;;5132251;27;20027;-80
2023/12/01 00:27:45;;;;;;;28.88;17.20;;;0.10;99.90;;;;;;5131442;27;20084;-80
2023/12/01 00:30:11;;;;;;;28.02;17.60;;;0.10;99.90;;;;;;5131769;27;20125;-80
2023/12/01 00:32:37;;;;;;;29.85;18.23;;;0.00;99.90;;;;;;5131275;27;20019;-80
2023/12/01 00:35:03;;;;;;;30.42;19.25;;;-0.10;99.90;;;;;;5112643;27;20023;-80
2023/12/01 00:37:30;;;;;;;30.42;19.35;;;-0.10;99.90;;;;;;5113036;27;20023;-79
2023/12/01 00:39:55;;;;;;;34.28;17.88;;;-0.10;99.90;;;;;;5130889;27;20437;-80
2023/12/01 00:42:21;;;;;;;28.27;18.35;;;-0.20;99.90;;;;;;5131971;27;20167;-79
2023/12/01 00:44:47;;;;;;;24.52;16.23;;;-0.20;99.90;;;;;;5112321;27;20024;-81
2023/12/01 00:47:13;;;;;;;29.25;17.90;;;-0.20;99.90;;;;;;5131372;27;20420;-80
2023/12/01 00:49:38;;;;;;;34.35;21.10;;;-0.20;99.90;;;;;;5130549;27;20034;-81
2023/12/01 00:52:05;;;;;;;34.78;20.75;;;-0.30;99.90;;;;;;5131648;27;20474;-81
2023/12/01 00:54:31;;;;;;;32.25;19.83;;;-0.20;99.90;;;;;;5131694;27;20043;-80
2023/12/01 00:56:57;;;;;;;30.13;19.30;;;-0.20;99.90;;;;;;5131673;27;20053;-80
2023/12/01 00:59:23;;;;;;;33.95;21.65;;;-0.30;99.90;;;;;;5132815;27;20479;-80
2023/12/01 01:01:49;;;;;;;30.95;17.52;;;-0.20;99.90;;;;;;5133553;27;20019;-80
2023/12/01 01:04:15;;;;;;;27.65;17.77;;;-0.20;99.90;;;;;;5115112;28;20045;-80
2023/12/01 01:06:40;;;;;;;27.75;18.05;;;-0.30;99.90;;;;;;5132321;27;20470;-81
2023/12/01 01:09:06;;;;;;;30.77;18.08;;;-0.20;99.90;;;;;;5131562;28;20410;-78
2023/12/01 01:11:32;;;;;;;26.50;16.55;;;-0.20;99.90;;;;;;5130982;27;20030;-79
2023/12/01 01:13:59;;;;;;;28.77;16.67;;;-0.20;99.90;;;;;;5131155;28;20452;-80
2023/12/01 01:16:25;;;;;;;25.25;17.02;;;-0.10;99.90;;;;;;5133832;28;20062;-79
2023/12/01 01:18:50;;;;;;;26.45;16.67;;;-0.20;99.90;;;;;;5135873;28;20031;-79
2023/12/01 01:21:17;;;;;;;27.10;16.80;;;-0.20;99.90;;;;;;5134380;28;20061;-82
2023/12/01 01:23:42;;;;;;;25.10;15.75;;;-0.10;99.90;;;;;;5131387;28;20019;-80
2023/12/01 01:26:08;;;;;;;27.10;16.10;;;-0.10;99.90;;;;;;5134580;28;20023;-80
2023/12/01 01:28:34;;;;;;;23.10;15.63;;;-0.10;99.90;;;;;;5135205;28;20027;-80
2023/12/01 01:31:00;;;;;;;25.15;16.88;;;-0.10;99.90;;;;;;5117477;28;20027;-80
2023/12/01 01:33:25;;;;;;;28.38;18.25;;;-0.10;99.90;;;;;;5131816;28;20030;-80
2023/12/01 01:35:51;;;;;;;25.52;16.35;;;0.00;99.90;;;;;;5131179;28;20050;-80
2023/12/01 01:38:17;;;;;;;24.55;15.27;;;0.00;99.90;;;;;;5112521;28;20110;-81
2023/12/01 01:40:42;;;;;;;20.83;14.23;;;0.00;99.90;;;;;;5131007;28;20031;-80
2023/12/01 01:43:08;;;;;;;23.00;14.80;;;0.00;99.90;;;;;;5131294;28;20457;-81
2023/12/01 01:45:34;;;;;;;22.58;15.15;;;0.00;99.90;;;;;;5112078;28;20392;-80
2023/12/01 01:47:59;;;;;;;21.90;14.82;;;0.00;99.90;;;;;;5131565;28;20099;-81
2023/12/01 01:50:26;;;;;;;24.65;15.23;;;0.00;99.90;;;;;;5130756;28;20024;-80
2023/12/01 01:52:54;;;;;;;23.75;15.73;;;0.00;99.90;;;;;;5130591;28;20520;-80
2023/12/01 01:55:20;;;;;;;25.80;16.10;;;0.10;99.90;;;;;;5131085;28;20130;-80
2023/12/01 01:57:47;;;;;;;25.80;16.05;;;0.10;99.90;;;;;;5130539;28;20453;-80
2023/12/01 02:00:17;;;;;;;24.20;14.77;;;0.20;99.90;;;;;;5130909;28;20141;-80
2023/12/01 02:02:43;;;;;;;26.63;15.95;;;0.10;99.90;;;;;;5130681;28;20024;-80
2023/12/01 02:05:13;;;;;;;27.23;16.00;;;0.10;99.90;;;;;;5130996;28;20027;-80
2023/12/01 02:07:39;;;;;;;26.20;15.52;;;0.10;99.90;;;;;;5130567;28;20537;-80
2023/12/01 02:10:06;;;;;;;24.38;15.43;;;0.10;99.90;;;;;;5130905;28;20038;-80
2023/12/01 02:12:32;;;;;;;24.67;16.38;;;0.20;99.90;;;;;;5131216;28;20533;-80
2023/12/01 02:14:58;;;;;;;24.50;16.60;;;0.10;99.90;;;;;;5130686;28;20063;-79
2023/12/01 02:17:23;;;;;;;25.92;15.02;;;0.10;99.90;;;;;;5130959;28;20027;-80
2023/12/01 02:19:51;;;;;;;26.67;16.10;;;0.10;99.90;;;;;;5130290;28;20027;-81
2023/12/01 02:22:17;;;;;;;31.75;20.98;;;0.10;99.90;;;;;;5131341;27;20028;-80
2023/12/01 02:24:43;;;;;;;30.95;18.38;;;0.10;99.90;;;;;;5098298;27;20042;-80
2023/12/01 02:27:09;;;;;;;22.67;15.93;;;0.10;99.90;;;;;;5134499;27;20031;-81
2023/12/01 02:29:34;;;;;;;26.73;17.05;;;0.20;99.90;;;;;;5115832;27;20027;-80
2023/12/01 02:32:00;;;;;;;27.38;17.92;;;0.20;99.90;;;;;;5133216;27;20034;-80
2023/12/01 02:34:26;;;;;;;26.38;17.52;;;0.20;99.90;;;;;;5134126;27;20034;-80
2023/12/01 02:36:53;;;;;;;29.67;19.05;;;0.20;99.90;;;;;;5133564;27;20023;-81
2023/12/01 02:39:19;;;;;;;30.33;18.98;;;0.20;99.90;;;;;;5134355;27;20075;-81
2023/12/01 02:41:45;;;;;;;26.90;18.30;;;0.20;99.90;;;;;;5133925;27;20528;-80
2023/12/01 02:44:11;;;;;;;29.33;18.15;;;0.20;99.90;;;;;;5133744;27;20110;-81
2023/12/01 02:46:37;;;;;;;25.50;16.38;;;0.20;99.90;;;;;;5133898;27;20027;-81
2023/12/01 02:49:03;;;;;;;24.33;15.93;;;0.20;99.90;;;;;;5133644;27;20027;-81
2023/12/01 02:51:28;;;;;;;27.55;16.70;;;0.30;99.90;;;;;;5133693;27;20023;-82
2023/12/01 02:53:54;;;;;;;24.50;15.95;;;0.30;99.90;;;;;;5133489;27;20047;-81
2023/12/01 02:56:20;;;;;;;22.52;15.65;;;0.30;99.90;;;;;;5115450;27;20023;-80
2023/12/01 02:58:45;;;;;;;27.23;16.65;;;0.30;99.90;;;;;;5133161;27;20080;-80
2023/12/01 03:01:11;;;;;;;26.98;16.08;;;0.30;99.90;;;;;;5115026;27;20387;-81
2023/12/01 03:03:37;;;;;;;22.48;15.77;;;0.30;99.90;;;;;;5133771;27;20015;-81
2023/12/01 03:06:03;;;;;;;26.15;17.20;;;0.30;99.90;;;;;;5132995;27;20054;-80
2023/12/01 03:08:29;;;;;;;24.50;15.27;;;0.30;99.90;;;;;;5133865;27;20102;-81
2023/12/01 03:10:55;;;;;;;21.00;14.73;;;0.30;99.90;;;;;;5132443;27;20073;-80
2023/12/01 03:13:21;;;;;;;21.83;14.52;;;0.30;99.90;;;;;;5133696;27;20030;-80
2023/12/01 03:15:47;;;;;;;25.77;15.40;;;0.30;99.90;;;;;;5097191;27;20026;-80
2023/12/01 03:18:13;;;;;;;19.90;14.30;;;0.30;99.90;;;;;;5133118;27;20055;-80
2023/12/01 03:20:39;;;;;;;21.85;13.93;;;0.30;99.90;;;;;;5133040;27;20046;-80
2023/12/01 03:23:04;;;;;;;24.98;15.20;;;0.20;99.90;;;;;;5133010;27;20313;-80
2023/12/01 03:25:30;;;;;;;24.52;15.57;;;0.10;99.90;;;;;;5133081;27;20023;-81
2023/12/01 03:27:56;;;;;;;24.45;16.30;;;0.00;99.90;;;;;;5114029;27;20028;-79
2023/12/01 03:30:21;;;;;;;32.85;19.85;;;0.00;99.90;;;;;;5133259;27;20031;-80
2023/12/01 03:32:49;;;;;;;25.20;16.50;;;0.00;99.90;;;;;;5132026;27;20019;-80
2023/12/01 03:35:20;;;;;;;23.80;16.02;;;-0.10;99.90;;;;;;5132967;27;20016;-80
2023/12/01 03:37:47;;;;;;;23.27;15.68;;;-0.10;99.90;;;;;;5113879;27;20023;-79
2023/12/01 03:40:13;;;;;;;22.45;15.35;;;-0.20;99.90;;;;;;5133203;27;20029;-80
2023/12/01 03:42:45;;;;;;;23.08;14.43;;;-0.20;99.90;;;;;;5115017;27;20027;-80
2023/12/01 03:45:12;;;;;;;24.58;14.88;;;-0.30;99.90;;;;;;5133511;27;20026;-80
2023/12/01 03:47:39;;;;;;;25.67;14.60;;;-0.30;99.90;;;;;;5114925;27;20031;-80
2023/12/01 03:50:05;;;;;;;21.65;14.30;;;-0.40;99.90;;;;;;5114616;27;20410;-81
2023/12/01 03:52:31;;;;;;;23.33;15.82;;;-0.30;99.90;;;;;;5114749;27;20075;-81
2023/12/01 03:54:58;;;;;;;22.50;15.38;;;-0.40;99.90;;;;;;5132426;27;20043;-80
2023/12/01 03:57:28;;;;;;;30.67;17.52;;;-0.40;99.90;;;;;;5132581;27;20477;-81
2023/12/01 03:59:54;;;;;;;24.00;15.57;;;-0.40;99.90;;;;;;5132177;27;20062;-81
2023/12/01 04:02:23;;;;;;;24.65;14.52;;;-0.40;99.90;;;;;;5132690;27;20043;-80
2023/12/01 04:04:49;;;;;;;23.00;15.57;;;-0.50;99.90;;;;;;5132251;27;20031;-80
2023/12/01 04:07:15;;;;;;;22.08;14.63;;;-0.50;99.90;;;;;;5132594;27;20055;-81
2023/12/01 04:09:41;;;;;;;24.05;15.57;;;-0.50;99.90;;;;;;5132820;27;20063;-81
2023/12/01 04:12:07;;;;;;;29.20;16.63;;;-0.50;99.90;;;;;;5132060;27;20470;-81
2023/12/01 04:14:33;;;;;;;26.35;15.10;;;-0.50;99.90;;;;;;5132071;27;20039;-81
2023/12/01 04:17:08;;;;;;;27.95;16.50;;;-0.50;99.90;;;;;;5113505;27;20031;-80
2023/12/01 04:19:35;;;;;;;27.27;15.57;;;-0.50;99.90;;;;;;5115923;27;20353;-81
2023/12/01 04:22:05;;;;;;;26.88;16.55;;;-0.60;99.90;;;;;;5114336;27;20027;-80
2023/12/01 04:24:35;;;;;;;31.38;16.55;;;-0.60;99.90;;;;;;5133249;27;20050;-81
2023/12/01 04:27:07;;;;;;;22.85;16.75;;;-0.60;99.90;;;;;;5132286;27;20079;-81
2023/12/01 04:29:32;;;;;;;25.30;17.17;;;-0.70;99.90;;;;;;5132564;27;20034;-81
2023/12/01 04:31:58;;;;;;;26.33;17.10;;;-0.70;99.90;;;;;;5131783;27;20027;-81
2023/12/01 04:34:26;;;;;;;27.23;17.55;;;-0.70;99.90;;;;;;5132639;27;20077;-81
2023/12/01 04:36:53;;;;;;;28.77;17.25;;;-0.60;99.90;;;;;;5112946;27;20088;-81
2023/12/01 04:39:20;;;;;;;28.35;17.42;;;-0.60;99.90;;;;;;5113815;27;20355;-80
2023/12/01 04:41:47;;;;;;;27.08;16.45;;;-0.60;99.90;;;;;;5132061;27;20029;-80
2023/12/01 04:44:13;;;;;;;29.02;17.35;;;-0.70;99.90;;;;;;5131943;27;20027;-82
2023/12/01 04:46:38;;;;;;;28.25;17.60;;;-0.60;99.90;;;;;;5112675;27;20038;-82
2023/12/01 04:49:08;;;;;;;26.65;16.10;;;-0.70;99.90;;;;;;5112616;28;20062;-81
2023/12/01 04:51:37;;;;;;;25.00;16.25;;;-0.60;99.90;;;;;;5132046;27;20109;-82
2023/12/01 04:54:06;;;;;;;26.70;16.00;;;-0.70;99.90;;;;;;5130861;27;20081;-81
2023/12/01 04:56:33;;;;;;;29.88;16.75;;;-0.60;99.90;;;;;;5131716;27;20106;-81
2023/12/01 04:59:01;;;;;;;27.05;17.98;;;-0.70;99.90;;;;;;5112756;28;20157;-81
2023/12/01 05:01:27;;;;;;;30.25;18.25;;;-0.70;99.90;;;;;;5131695;27;20035;-81
2023/12/01 05:03:52;;;;;;;31.80;18.20;;;-0.80;99.90;;;;;;5131315;27;20131;-81
2023/12/01 05:06:18;;;;;;;27.88;17.08;;;-0.70;99.90;;;;;;5131079;27;20035;-82
2023/12/01 05:08:44;;;;;;;28.35;18.30;;;-0.80;99.90;;;;;;5131560;27;20468;-82
2023/12/01 05:11:10;;;;;;;27.50;17.30;;;-0.70;99.90;;;;;;5113005;28;20437;-82
2023/12/01 05:13:35;;;;;;;28.38;17.65;;;-0.70;99.90;;;;;;5131487;28;20448;-81
2023/12/01 05:16:01;;;;;;;30.65;17.58;;;-0.80;99.90;;;;;;5131122;28;20055;-81
2023/12/01 05:18:27;;;;;;;31.48;17.90;;;-0.80;99.90;;;;;;5130939;28;20031;-80
2023/12/01 05:20:53;;;;;;;28.30;17.58;;;-0.80;99.90;;;;;;5130758;28;20039;-79
2023/12/01 05:23:19;;;;;;;31.38;18.48;;;-0.80;99.90;;;;;;5132066;28;20122;-81
2023/12/01 05:25:46;;;;;;;27.17;17.33;;;-0.80;99.90;;;;;;5131536;28;20528;-81
2023/12/01 05:28:12;;;;;;;26.65;16.55;;;-0.80;99.90;;;;;;5130922;28;20034;-81
2023/12/01 05:30:40;;;;;;;25.95;17.02;;;-0.80;99.90;;;;;;5117187;28;20028;-80
2023/12/01 05:33:06;;;;;;;24.38;16.10;;;-0.80;99.90;;;;;;5137201;28;20103;-80
2023/12/01 05:35:35;;;;;;;27.27;16.88;;;-0.70;99.90;;;;;;5134280;28;20019;-81
2023/12/01 05:38:01;;;;;;;26.90;16.25;;;-0.70;99.90;;;;;;5131269;28;20138;-79
2023/12/01 05:40:32;;;;;;;28.65;17.15;;;-0.70;99.90;;;;;;5135511;28;20098;-80
2023/12/01 05:42:58;;;;;;;28.50;17.77;;;-0.90;99.90;;;;;;5136515;28;20042;-81
2023/12/01 05:45:26;;;;;;;26.52;17.38;;;-0.80;99.90;;;;;;5134298;28;20528;-81
2023/12/01 05:47:53;;;;;;;30.35;18.33;;;-0.80;99.90;;;;;;5130960;28;20118;-81
2023/12/01 05:50:24;;;;;;;27.55;17.15;;;-1.00;99.90;;;;;;5112926;28;20084;-80
2023/12/01 05:52:52;;;;;;;31.77;18.63;;;-0.90;99.90;;;;;;5131089;28;20029;-80
2023/12/01 05:55:27;;;;;;;25.00;15.43;;;-0.90;99.90;;;;;;5095339;28;20429;-81
2023/12/01 05:58:01;;;;;;;26.27;16.83;;;-0.80;99.90;;;;;;5133642;27;20061;-81
2023/12/01 06:00:30;;;;;;;30.15;17.88;;;-0.80;99.90;;;;;;5135419;27;20118;-81
2023/12/01 06:03:06;;;;;;;22.15;15.88;;;-0.70;99.90;;;;;;5134748;27;20432;-81
2023/12/01 06:05:34;;;;;;;28.23;17.73;;;-0.70;99.90;;;;;;5135072;27;20031;-81
2023/12/01 06:08:01;;;;;;;25.83;16.70;;;-0.80;99.90;;;;;;5134717;27;20039;-81
2023/12/01 06:10:29;;;;;;;26.30;18.38;;;-0.80;99.90;;;;;;5116520;27;20031;-81
2023/12/01 06:12:55;;;;;;;27.33;16.83;;;-0.70;99.90;;;;;;5133910;27;20449;-81
2023/12/01 06:15:22;;;;;;;24.40;17.88;;;-0.80;99.90;;;;;;5134945;27;20087;-81
2023/12/01 06:17:49;;;;;;;33.90;18.73;;;-0.80;99.90;;;;;;5134554;27;20043;-81
2023/12/01 06:20:20;;;;;;;27.60;18.02;;;-0.90;99.90;;;;;;5116244;27;20027;-81
2023/12/01 06:22:56;;;;;;;28.35;17.38;;;-0.90;99.90;;;;;;5116382;27;20084;-81
2023/12/01 06:25:28;;;;;;;28.33;17.25;;;-0.90;99.90;;;;;;5134683;27;20109;-81
2023/12/01 06:27:58;;;;;;;28.40;18.30;;;-0.90;99.90;;;;;;5134157;27;20023;-79
2023/12/01 06:30:25;;;;;;;30.70;18.45;;;-0.90;99.90;;;;;;5134342;27;20379;-82
2023/12/01 06:32:51;;;;;;;23.85;16.63;;;-0.90;99.90;;;;;;5134900;27;20030;-81
2023/12/01 06:35:21;;;;;;;27.15;18.02;;;-0.90;99.90;;;;;;5135802;27;20027;-83
2023/12/01 06:37:48;;;;;;;31.17;18.92;;;-0.90;99.90;;;;;;5116169;27;20130;-83
2023/12/01 06:40:18;;;;;;;29.10;17.88;;;-0.90;99.90;;;;;;5116536;27;20203;-82
2023/12/01 06:42:48;;;;;;;28.33;17.55;;;-0.90;99.90;;;;;;5135764;27;20106;-82
2023/12/01 06:45:16;;;;;;;26.77;15.75;;;-0.80;99.90;;;;;;5134284;27;20088;-82
2023/12/01 06:47:46;;;;;;;28.25;16.98;;;-0.80;99.90;;;;;;5116210;27;20063;-81
2023/12/01 06:50:14;;;;;;;27.63;17.60;;;-0.90;99.90;;;;;;5133043;27;20422;-81
2023/12/01 06:52:40;;;;;;;25.83;16.67;;;-0.90;99.90;;;;;;5133806;27;20130;-81
2023/12/01 06:55:07;;;;;;;29.02;18.70;;;-0.90;99.90;;;;;;5114657;27;20062;-81
2023/12/01 06:57:38;;;;;;;27.17;17.15;;;-0.90;99.90;;;;;;5133601;27;20031;-81
2023/12/01 07:00:08;;;;;;;30.40;19.23;;;-1.00;99.90;;;;;;5133471;27;20057;-81
2023/12/01 07:02:38;;;;;;;31.25;19.23;;;-1.00;99.90;;;;;;5134214;27;20026;-81
2023/12/01 07:05:19;;;;;;;28.95;18.73;;;-1.10;99.90;;;;;;5114780;27;20042;-80
2023/12/01 07:07:45;;;;;;;32.15;19.30;;;-1.20;99.90;;;;;;5133416;27;20464;-80
2023/12/01 07:10:11;;;;;;;28.38;18.45;;;-1.20;99.90;;;;;;5114484;27;20027;-81
2023/12/01 07:12:37;;;;;;;27.52;18.15;;;-1.20;99.90;;;;;;5134543;27;20038;-81
2023/12/01 07:15:03;;;;;;;33.42;20.38;;;-1.30;99.90;;;;;;5134032;27;20087;-81
2023/12/01 07:17:29;;;;;;;36.53;21.10;;;-1.30;99.90;;;;;;5133524;27;20506;-81
2023/12/01 07:19:55;;;;;;;32.92;19.85;;;-1.30;99.90;;;;;;5133561;27;20456;-80
2023/12/01 07:22:22;;;;;;;30.65;18.83;;;-1.30;99.90;;;;;;5133276;27;20080;-81
2023/12/01 07:24:49;;;;;;;28.05;19.88;;;-1.30;99.90;;;;;;5114840;27;20130;-81
2023/12/01 07:27:15;;;;;;;30.33;18.65;;;-1.30;99.90;;;;;;5132475;27;20047;-81
2023/12/01 07:29:42;;;;;;;29.10;18.52;;;-1.30;99.90;;;;;;5132910;27;20049;-81
2023/12/01 07:32:07;;;;;;;32.47;18.77;;;-1.30;99.90;;;;;;5132652;27;20084;-81
2023/12/01 07:34:34;;;;;;;28.90;18.88;;;-1.20;99.90;;;;;;5133945;27;20398;-81
2023/12/01 07:37:00;;;;;;;33.75;19.45;;;-1.30;99.90;;;;;;5133053;27;20034;-80
2023/12/01 07:39:26;;;;;;;32.60;20.17;;;-1.30;99.90;;;;;;5132952;27;20054;-81
2023/12/01 07:41:51;;;;;;;29.45;18.65;;;-1.30;99.90;;;;;;5133872;27;20472;-81
2023/12/01 07:44:17;;;;;;;31.48;17.98;;;-1.40;99.90;;;;;;5132695;27;20106;-81
2023/12/01 07:46:43;;;;;;;30.38;19.15;;;-1.30;99.90;;;;;;5132953;27;20103;-82
2023/12/01 07:49:11;;;;;;;28.00;17.60;;;-1.20;99.90;;;;;;5131913;27;20034;-82
2023/12/01 07:51:38;;;;;;;30.50;16.77;;;-1.20;99.90;;;;;;5133320;27;20413;-82
2023/12/01 07:54:05;;;;;;;29.98;18.08;;;-1.20;99.90;;;;;;5131646;27;20126;-82
2023/12/01 07:56:31;;;;;;;33.40;19.75;;;-1.20;99.90;;;;;;5132495;27;20034;-82
2023/12/01 07:58:57;;;;;;;37.22;20.70;;;-1.20;99.90;;;;;;5132764;27;20378;-81
2023/12/01 08:01:23;;;;;;;74.28;33.65;;;-1.30;99.90;;;;;;5132183;27;20143;-81
2023/12/01 08:03:49;;;;;;;69.18;32.90;;;-1.30;99.90;;;;;;5132514;27;20061;-82
2023/12/01 08:06:15;;;;;;;63.35;32.03;;;-1.30;99.90;;;;;;5132080;27;20082;-81
2023/12/01 08:08:41;;;;;;;78.07;39.88;;;-1.30;99.90;;;;;;5133252;27;20031;-82
2023/12/01 08:11:07;;;;;;;78.20;37.28;;;-1.20;99.90;;;;;;5114217;27;20023;-82
2023/12/01 08:13:34;;;;;;;51.70;26.40;;;-1.20;99.90;;;;;;5133902;27;20084;-82
2023/12/01 08:16:00;;;;;;;63.10;30.67;;;-1.20;99.90;;;;;;5097829;27;20031;-81
2023/12/01 08:18:26;;;;;;;58.35;30.23;;;-1.20;99.90;;;;;;5133132;27;20034;-82
2023/12/01 08:20:52;;;;;;;55.80;31.25;;;-1.20;99.90;;;;;;5131989;27;20019;-82
2023/12/01 08:23:18;;;;;;;53.78;28.52;;;-1.20;99.90;;;;;;5131960;27;20294;-81
2023/12/01 08:25:43;;;;;;;39.58;23.23;;;-1.30;99.90;;;;;;5132109;27;20030;-81
2023/12/01 08:28:09;;;;;;;39.45;23.40;;;-1.20;99.90;;;;;;5131761;27;20096;-82
2023/12/01 08:30:36;;;;;;;38.38;23.38;;;-1.20;99.90;;;;;;5132564;27;20035;-81
2023/12/01 08:33:02;;;;;;;32.50;20.48;;;-1.20;99.90;;;;;;5131204;27;20038;-79
2023/12/01 08:35:28;;;;;;;31.35;19.35;;;-1.20;99.90;;;;;;5131905;27;20019;-81
2023/12/01 08:37:54;;;;;;;35.45;21.05;;;-1.10;99.90;;;;;;5131909;27;20384;-82
2023/12/01 08:40:20;;;;;;;55.40;28.60;;;-1.20;99.90;;;;;;5131779;27;20031;-84
2023/12/01 08:42:46;;;;;;;58.55;31.38;;;-1.20;99.90;;;;;;5133162;27;20494;-82
2023/12/01 08:45:12;;;;;;;45.92;26.30;;;-1.10;99.90;;;;;;5131664;27;20105;-82
2023/12/01 08:47:38;;;;;;;40.47;23.67;;;-1.10;99.90;;;;;;5131957;27;20365;-82
2023/12/01 08:50:04;;;;;;;37.03;23.98;;;-1.10;99.90;;;;;;5131703;27;20023;-82
2023/12/01 08:52:30;;;;;;;34.90;21.42;;;-1.20;99.90;;;;;;5113110;27;20076;-82
2023/12/01 08:54:56;;;;;;;31.05;19.83;;;-1.10;99.90;;;;;;5132387;27;20042;-81
2023/12/01 08:57:21;;;;;;;30.98;20.27;;;-1.10;99.90;;;;;;5132737;27;20589;-81
2023/12/01 08:59:47;;;;;;;41.60;26.33;;;-1.10;99.90;;;;;;5132100;27;20072;-82
2023/12/01 09:02:14;;;;;;;49.67;29.38;;;-1.00;99.90;;;;;;5131219;27;20019;-82
2023/12/01 09:04:39;;;;;;;41.38;26.38;;;-1.00;99.90;;;;;;5131367;27;20365;-82
2023/12/01 09:07:05;;;;;;;42.42;25.25;;;-0.90;99.90;;;;;;5112611;27;20110;-81
2023/12/01 09:09:31;;;;;;;36.63;21.67;;;-0.90;99.90;;;;;;5113383;28;20405;-81
2023/12/01 09:11:56;;;;;;;33.90;21.30;;;-0.80;99.90;;;;;;5131267;28;20445;-81
2023/12/01 09:14:22;;;;;;;36.95;19.58;;;-0.70;99.90;;;;;;5112309;28;20023;-81
2023/12/01 09:16:48;;;;;;;31.63;18.23;;;-0.70;99.90;;;;;;5131075;28;20031;-80
2023/12/01 09:19:13;;;;;;;27.73;18.35;;;-0.50;99.90;;;;;;5131138;28;20073;-80
2023/12/01 09:21:39;;;;;;;29.73;18.70;;;-0.40;99.90;;;;;;5131071;28;20031;-81
2023/12/01 09:24:05;;;;;;;25.05;16.48;;;-0.30;99.90;;;;;;5130735;28;20030;-80
2023/12/01 09:26:31;;;;;;;29.52;18.33;;;-0.20;99.90;;;;;;5112702;28;20446;-81
2023/12/01 09:28:57;;;;;;;33.78;19.63;;;-0.10;99.90;;;;;;5131894;28;20144;-81
2023/12/01 09:31:23;;;;;;;31.70;20.02;;;-0.10;99.90;;;;;;5131712;27;20106;-81
2023/12/01 09:33:49;;;;;;;41.95;26.25;;;0.00;99.90;;;;;;5136447;27;20024;-80
2023/12/01 09:36:18;;;;;;;37.90;21.15;;;0.00;99.90;;;;;;5141765;27;20160;-83
2023/12/01 09:38:44;;;;;;;41.83;24.38;;;0.00;99.90;;;;;;5153540;27;20031;-82
2023/12/01 09:41:11;;;;;;;56.67;29.63;;;0.00;99.90;;;;;;5141069;27;20027;-85
2023/12/01 09:43:38;;;;;;;46.92;26.20;;;0.10;99.90;;;;;;5117890;27;20020;-83
2023/12/01 09:46:05;;;;;;;45.00;25.45;;;0.10;99.90;;;;;;5129320;27;20038;-82
2023/12/01 09:48:34;;;;;;;37.55;21.20;;;0.20;99.90;;;;;;5150403;27;20099;-85
2023/12/01 09:51:00;;;;;;;33.47;21.63;;;0.20;99.90;;;;;;5141178;27;20133;-84
2023/12/01 09:53:26;;;;;;;57.50;31.77;;;0.30;99.90;;;;;;5135269;27;20024;-84
2023/12/01 09:55:52;;;;;;;62.75;33.85;;;0.30;99.90;;;;;;5135690;27;20029;-84
2023/12/01 09:58:19;;;;;;;39.83;24.42;;;0.40;99.90;;;;;;5135100;27;20091;-82
2023/12/01 10:00:48;;;;;;;37.42;24.15;;;0.40;99.90;;;;;;5135761;27;20038;-82
2023/12/01 10:03:13;;;;;;;30.38;19.85;;;0.40;99.90;;;;;;5134580;27;20035;-83
2023/12/01 10:05:40;;;;;;;28.35;19.10;;;0.40;99.90;;;;;;5135321;27;20034;-83
2023/12/01 10:08:06;;;;;;;24.63;18.63;;;0.40;99.90;;;;;;5134746;27;20452;-82
2023/12/01 10:10:33;;;;;;;27.50;16.75;;;0.40;99.90;;;;;;5116697;27;20114;-82
2023/12/01 10:13:06;;;;;;;26.88;19.13;;;0.40;99.90;;;;;;5116549;27;20023;-83
2023/12/01 10:15:39;;;;;;;27.48;18.92;;;0.50;99.90;;;;;;5134777;27;20079;-83
2023/12/01 10:18:27;;;;;;;37.55;21.45;;;0.50;99.90;;;;;;5134861;27;20321;-83
2023/12/01 10:21:07;;;;;;;40.25;23.20;;;0.50;99.90;;;;;;5135743;27;20088;-84
2023/12/01 10:23:33;;;;;;;35.90;22.48;;;0.50;99.90;;;;;;5134527;27;20541;-82
2023/12/01 10:26:03;;;;;;;35.42;20.33;;;0.60;99.90;;;;;;5135270;27;20019;-84
2023/12/01 10:28:41;;;;;;;30.88;18.52;;;0.60;99.90;;;;;;5134891;27;20144;-83
2023/12/01 10:31:07;;;;;;;32.15;18.88;;;0.70;99.90;;;;;;5116913;27;20468;-83
2023/12/01 10:33:35;;;;;;;30.02;18.35;;;0.70;99.90;;;;;;5117263;27;20023;-83
2023/12/01 10:36:03;;;;;;;26.05;16.67;;;0.80;99.90;;;;;;5135422;27;20051;-84
2023/12/01 10:38:30;;;;;;;30.98;16.63;;;0.80;99.90;;;;;;5134278;27;20072;-84
2023/12/01 10:40:56;;;;;;;29.23;17.63;;;0.90;99.90;;;;;;5135087;27;20106;-83
2023/12/01 10:43:22;;;;;;;28.02;16.67;;;0.90;99.90;;;;;;5133038;27;20035;-83
2023/12/01 10:45:52;;;;;;;27.02;16.50;;;1.10;99.90;;;;;;5116382;27;20027;-83
2023/12/01 10:48:19;;;;;;;22.33;14.77;;;1.10;99.90;;;;;;5134079;27;20038;-83
2023/12/01 10:50:47;;;;;;;19.38;13.50;;;1.20;99.90;;;;;;5135105;27;20107;-81
2023/12/01 10:53:18;;;;;;;22.70;13.82;;;1.40;99.90;;;;;;5133985;27;20370;-81
2023/12/01 10:55:46;;;;;;;21.88;14.55;;;1.40;99.90;;;;;;5135244;27;20039;-81
2023/12/01 10:58:20;;;;;;;17.33;12.32;;;1.50;99.90;;;;;;5134023;27;20121;-82
2023/12/01 11:00:50;;;;;;;21.17;13.15;;;1.60;99.90;;;;;;5134881;27;20027;-81
2023/12/01 11:03:22;;;;;;;19.35;14.60;;;1.70;99.90;;;;;;5134196;27;20138;-81
2023/12/01 11:06:01;;;;;;;30.73;17.27;;;1.70;99.90;;;;;;5134625;27;20413;-81
2023/12/01 11:08:51;;;;;;;22.10;13.88;;;1.80;99.90;;;;;;5115076;27;20057;-81
2023/12/01 11:11:48;;;;;;;18.67;13.35;;;1.90;99.90;;;;;;5133201;27;20349;-82
2023/12/01 11:14:21;;;;;;;19.73;13.05;;;1.90;99.90;;;;;;5049441;28;20041;-81
2023/12/01 11:16:48;;;;;;;26.17;15.38;;;1.90;99.90;;;;;;5033459;28;20443;-81
2023/12/01 11:19:15;;;;;;;18.38;14.15;;;1.90;99.90;;;;;;5049660;28;20127;-81
2023/12/01 11:21:44;;;;;;;24.55;15.30;;;1.90;99.90;;;;;;5049658;28;20462;-79
2023/12/01 11:24:27;;;;;;;22.02;13.27;;;1.90;99.90;;;;;;5049438;28;20041;-80
2023/12/01 11:26:54;;;;;;;20.15;12.73;;;1.90;99.90;;;;;;5049620;28;20086;-80
2023/12/01 11:29:29;;;;;;;18.05;13.07;;;2.00;99.90;;;;;;5048865;28;20033;-81
2023/12/01 11:31:57;;;;;;;17.35;12.15;;;1.90;99.90;;;;;;5049537;28;20037;-81
2023/12/01 11:34:25;;;;;;;21.05;12.35;;;2.00;99.90;;;;;;5048732;28;20414;-81
2023/12/01 11:36:52;;;;;;;16.50;10.30;;;2.00;99.90;;;;;;5032377;28;20041;-80
2023/12/01 11:39:29;;;;;;;21.52;12.88;;;2.10;99.90;;;;;;5049017;28;20063;-80
2023/12/01 11:41:57;;;;;;;20.88;12.68;;;2.20;99.90;;;;;;5049826;28;20032;-81
2023/12/01 11:44:42;;;;;;;20.48;12.25;;;2.30;99.90;;;;;;5049200;28;20041;-79
2023/12/01 11:47:13;;;;;;;22.00;14.02;;;2.40;99.90;;;;;;5049733;28;20051;-79
2023/12/01 11:49:42;;;;;;;27.67;15.90;;;2.50;99.90;;;;;;5057713;27;20039;-79
2023/12/01 11:52:19;;;;;;;22.58;14.02;;;2.50;99.90;;;;;;5133926;27;20420;-79
2023/12/01 11:54:45;;;;;;;24.17;14.88;;;2.60;99.90;;;;;;5132970;27;20525;-79
2023/12/01 11:57:16;;;;;;;17.58;11.48;;;2.60;99.90;;;;;;5132905;27;20125;-79
2023/12/01 11:59:42;;;;;;;15.20;10.60;;;2.70;99.90;;;;;;5132925;27;20428;-79
2023/12/01 12:02:07;;;;;;;14.25;10.98;;;2.80;99.90;;;;;;5132827;27;20052;-78
2023/12/01 12:04:37;;;;;;;23.02;13.25;;;2.80;99.90;;;;;;5132243;27;20043;-79
2023/12/01 12:07:04;;;;;;;24.05;14.13;;;2.90;99.90;;;;;;5132706;27;20071;-77
2023/12/01 12:09:32;;;;;;;23.80;14.32;;;3.00;99.90;;;;;;5131980;27;20050;-77
2023/12/01 12:12:00;;;;;;;22.05;12.63;;;3.10;99.90;;;;;;5132660;27;20023;-77
2023/12/01 12:14:28;;;;;;;19.73;11.88;;;3.10;99.90;;;;;;5131567;27;20027;-77
2023/12/01 12:16:55;;;;;;;20.60;12.95;;;3.10;99.90;;;;;;5132296;27;20398;-78
2023/12/01 12:19:21;;;;;;;15.93;11.02;;;3.20;99.90;;;;;;5131771;27;20189;-78
2023/12/01 12:21:48;;;;;;;19.52;11.93;;;3.20;99.90;;;;;;5132283;27;20027;-79
2023/12/01 12:24:14;;;;;;;20.48;12.75;;;3.20;99.90;;;;;;5097110;27;20145;-79
2023/12/01 12:26:40;;;;;;;21.20;12.55;;;3.20;99.90;;;;;;5131863;27;20077;-79
2023/12/01 12:29:07;;;;;;;23.17;14.95;;;3.30;99.90;;;;;;5131981;27;20489;-79
2023/12/01 12:31:38;;;;;;;24.63;14.95;;;3.20;99.90;;;;;;5131797;27;20027;-79